createdAt,value
2019-01-20T00:02:48.324Z,40.20
2019-01-20T00:07:52.974Z,34.97
2019-01-20T00:12:57.655Z,36.07
2019-01-20T00:18:02.291Z,30.77
2019-01-20T00:23:07.850Z,37.13
2019-01-20T00:28:12.453Z,37.63
2019-01-20T00:33:20.661Z,38.30
2019-01-20T00:38:25.235Z,33.37
2019-01-20T00:43:29.726Z,32.47
2019-01-20T00:48:34.308Z,33.80
2019-01-20T00:53:38.873Z,28.73
2019-01-20T00:58:43.437Z,34.87
2019-01-20T01:03:48.042Z,30.93
2019-01-20T01:08:52.620Z,44.67
2019-01-20T01:13:57.227Z,36.17
2019-01-20T01:19:01.752Z,34.23
2019-01-20T01:24:06.270Z,36.63
2019-01-20T01:29:10.841Z,36.23
2019-01-20T01:34:15.337Z,36.17
2019-01-20T01:39:19.949Z,35.63
2019-01-20T01:44:24.554Z,30.17
2019-01-20T01:49:29.161Z,33.13
2019-01-20T01:54:33.747Z,35.33
2019-01-20T01:59:38.323Z,38.37
2019-01-20T02:04:42.826Z,38.57
2019-01-20T02:09:47.420Z,37.87
2019-01-20T02:14:51.988Z,29.40
2019-01-20T02:19:56.473Z,36.77
2019-01-20T02:25:01.062Z,30.17
2019-01-20T02:30:08.309Z,32.43
2019-01-20T02:35:12.143Z,31.17
2019-01-20T02:40:17.190Z,32.40
2019-01-20T02:45:21.838Z,38.30
2019-01-20T02:50:26.427Z,27.50
2019-01-20T02:55:30.961Z,34.13
2019-01-20T03:00:35.554Z,29.97
2019-01-20T03:05:40.062Z,32.87
2019-01-20T03:10:44.621Z,35.50
2019-01-20T03:15:49.212Z,32.43
2019-01-20T03:20:53.990Z,27.97
2019-01-20T03:25:58.522Z,39.13
2019-01-20T03:31:02.998Z,33.40
2019-01-20T03:36:07.617Z,29.33
2019-01-20T03:41:12.219Z,34.17
2019-01-20T03:46:16.801Z,31.40
2019-01-20T03:51:21.338Z,27.87
2019-01-20T03:56:25.931Z,35.73
2019-01-20T04:01:30.430Z,30.00
2019-01-20T04:06:35.112Z,35.63
2019-01-20T04:11:39.713Z,39.43
2019-01-20T04:16:44.203Z,38.23
2019-01-20T04:21:48.785Z,32.77
2019-01-20T04:26:53.383Z,42.38
2019-01-20T04:31:58.002Z,44.23
2019-01-20T04:37:02.601Z,38.40
2019-01-20T04:42:07.097Z,34.03
2019-01-20T04:47:11.681Z,36.90
2019-01-20T04:52:16.264Z,38.73
2019-01-20T04:57:22.230Z,34.63
2019-01-20T05:02:26.812Z,29.03
2019-01-20T05:07:31.381Z,34.00
2019-01-20T05:12:37.696Z,31.97
2019-01-20T05:17:42.210Z,39.40
2019-01-20T05:22:46.892Z,35.17
2019-01-20T05:27:51.429Z,36.33
2019-01-20T05:32:55.999Z,42.27
2019-01-20T05:38:00.597Z,35.03
2019-01-20T05:43:05.208Z,30.30
2019-01-20T05:48:09.793Z,34.27
2019-01-20T05:53:14.323Z,43.50
2019-01-20T05:58:18.857Z,38.10
2019-01-20T06:03:23.339Z,39.60
2019-01-20T06:08:27.943Z,44.13
2019-01-20T06:13:32.593Z,37.67
2019-01-20T06:18:37.177Z,41.43
2019-01-20T06:23:41.766Z,36.57
2019-01-20T06:28:46.339Z,39.03
2019-01-20T06:33:50.947Z,38.60
2019-01-20T06:38:55.521Z,36.00
2019-01-20T06:43:59.997Z,38.30
2019-01-20T06:49:04.638Z,37.67
2019-01-20T06:54:09.261Z,37.60
2019-01-20T06:59:13.886Z,38.67
2019-01-20T07:04:18.451Z,34.83
2019-01-20T07:09:23.033Z,37.97
2019-01-20T07:14:27.686Z,42.40
2019-01-20T07:19:34.739Z,43.97
2019-01-20T07:24:39.307Z,40.77
2019-01-20T07:29:43.885Z,46.60
2019-01-20T07:34:48.425Z,43.73
2019-01-20T07:39:52.950Z,48.70
2019-01-20T07:44:57.526Z,41.47
2019-01-20T07:50:03.478Z,42.03
2019-01-20T07:55:09.047Z,41.90
2019-01-20T08:00:15.874Z,46.13
2019-01-20T08:05:20.597Z,48.73
2019-01-20T08:10:29.917Z,45.95
2019-01-20T08:15:34.509Z,42.00
2019-01-20T08:20:39.126Z,41.33
2019-01-20T08:25:43.886Z,43.17
2019-01-20T08:30:48.464Z,48.23
2019-01-20T08:35:53.067Z,38.77
2019-01-20T08:40:57.674Z,46.50
2019-01-20T08:46:45.091Z,44.70
2019-01-20T08:51:49.601Z,40.10
2019-01-20T08:56:54.118Z,43.27
2019-01-20T09:01:58.726Z,38.90
2019-01-20T09:07:03.308Z,42.23
2019-01-20T09:12:07.892Z,41.60
2019-01-20T09:17:12.512Z,42.87
2019-01-20T09:22:17.034Z,54.00
2019-01-20T09:27:21.554Z,44.43
2019-01-20T09:32:26.137Z,45.43
2019-01-20T09:37:30.646Z,53.17
2019-01-20T09:42:35.288Z,46.40
2019-01-20T09:47:40.855Z,48.33
2019-01-20T09:52:45.499Z,55.03
2019-01-20T09:57:50.089Z,46.33
2019-01-20T10:02:55.006Z,47.63
2019-01-20T10:07:59.573Z,50.93
2019-01-20T10:13:04.170Z,51.00
2019-01-20T10:18:08.771Z,48.97
2019-01-20T10:23:13.307Z,50.00
2019-01-20T10:28:20.640Z,49.10
2019-01-20T10:33:25.222Z,46.93
2019-01-20T10:38:29.816Z,48.73
2019-01-20T10:43:34.444Z,50.77
2019-01-20T10:48:38.980Z,44.13
2019-01-20T10:53:43.619Z,53.87
2019-01-20T10:58:48.198Z,41.80
2019-01-20T11:03:52.758Z,48.27
2019-01-20T11:08:57.373Z,43.70
2019-01-20T11:14:01.959Z,44.73
2019-01-20T11:19:06.581Z,41.80
2019-01-20T11:24:11.156Z,48.73
2019-01-20T11:29:15.904Z,46.37
2019-01-20T11:34:20.490Z,46.53
2019-01-20T11:39:25.151Z,42.73
2019-01-20T11:44:29.703Z,45.10
2019-01-20T11:49:34.229Z,47.60
2019-01-20T11:54:38.827Z,37.87
2019-01-20T11:59:43.441Z,48.33
2019-01-20T12:04:48.023Z,42.17
2019-01-20T12:09:52.653Z,41.80
2019-01-20T12:14:57.165Z,40.53
2019-01-20T12:20:01.943Z,41.67
2019-01-20T12:25:08.778Z,40.90
2019-01-20T12:30:16.854Z,35.30
2019-01-20T12:35:21.450Z,31.87
2019-01-20T12:40:29.570Z,32.87
2019-01-20T12:45:34.212Z,31.13
2019-01-20T12:50:38.802Z,27.40
2019-01-20T12:55:43.398Z,24.87
2019-01-20T13:00:48.059Z,24.23
2019-01-20T13:05:52.790Z,25.27
2019-01-20T13:10:57.395Z,31.37
2019-01-20T13:16:01.988Z,27.13
2019-01-20T13:21:08.067Z,23.60
2019-01-20T13:26:12.747Z,24.20
2019-01-20T13:31:17.325Z,28.90
2019-01-20T13:36:21.897Z,39.70
2019-01-20T13:41:29.324Z,34.47
2019-01-20T13:46:33.933Z,34.00
2019-01-20T13:51:38.537Z,40.13
2019-01-20T13:56:43.051Z,37.47
2019-01-20T14:01:47.651Z,32.20
2019-01-20T14:06:52.279Z,30.67
2019-01-20T14:11:56.853Z,31.73
2019-01-20T14:17:01.473Z,31.60
2019-01-20T14:22:05.994Z,28.50
2019-01-20T14:27:10.589Z,27.20
2019-01-20T14:32:15.163Z,21.80
2019-01-20T14:37:19.720Z,26.50
2019-01-20T14:42:24.240Z,30.50
2019-01-20T14:47:28.844Z,31.90
2019-01-20T14:52:33.386Z,31.20
2019-01-20T14:57:38.556Z,29.80
2019-01-20T15:02:43.762Z,31.53
2019-01-20T15:07:48.374Z,28.90
2019-01-20T15:12:52.972Z,23.00
2019-01-20T15:17:57.987Z,28.87
2019-01-20T15:23:02.840Z,25.20
2019-01-20T15:28:07.999Z,22.37
2019-01-20T15:33:12.607Z,24.63
2019-01-20T15:38:17.291Z,28.17
2019-01-20T15:43:21.862Z,23.13
2019-01-20T15:48:26.468Z,25.80
2019-01-20T15:53:31.029Z,22.60
2019-01-20T15:58:35.731Z,30.00
2019-01-20T16:03:40.403Z,28.77
2019-01-20T16:08:45.072Z,21.43
2019-01-20T16:13:49.606Z,28.77
2019-01-20T16:18:54.505Z,24.00
2019-01-20T16:23:59.079Z,29.43
2019-01-20T16:29:03.665Z,31.33
2019-01-20T16:34:08.319Z,27.53
2019-01-20T16:39:12.933Z,23.23
2019-01-20T16:44:17.586Z,29.13
2019-01-20T16:49:22.247Z,32.15
2019-01-20T16:54:26.966Z,36.63
2019-01-20T16:59:31.505Z,39.90
2019-01-20T17:04:36.152Z,32.35
2019-01-20T17:09:42.023Z,34.37
2019-01-20T17:14:46.584Z,33.43
2019-01-20T17:19:51.282Z,35.90
2019-01-20T17:24:56.132Z,35.23
2019-01-20T17:30:00.780Z,36.67
2019-01-20T17:35:06.231Z,43.43
2019-01-20T17:40:14.079Z,35.57
2019-01-20T17:45:21.421Z,46.67
2019-01-20T17:50:31.525Z,43.48
2019-01-20T17:55:36.351Z,46.88
2019-01-20T18:00:56.970Z,45.70
2019-01-20T18:06:01.574Z,43.50
2019-01-20T18:11:06.213Z,43.83
2019-01-20T18:16:10.873Z,37.73
2019-01-20T18:21:15.530Z,41.83
2019-01-20T18:26:20.095Z,45.73
2019-01-20T18:31:24.705Z,42.03
2019-01-20T18:36:29.331Z,43.03
2019-01-20T18:41:34.034Z,48.30
2019-01-20T18:46:38.689Z,51.15
2019-01-20T18:51:43.381Z,42.70
2019-01-20T18:56:48.054Z,45.70
2019-01-20T19:01:52.693Z,42.80
2019-01-20T19:06:57.275Z,45.88
2019-01-20T19:12:02.151Z,41.63
2019-01-20T19:17:06.959Z,51.08
2019-01-20T19:22:11.870Z,42.17
2019-01-20T19:27:16.510Z,44.70
2019-01-20T19:32:21.226Z,42.80
2019-01-20T19:37:25.798Z,47.93
2019-01-20T19:42:30.370Z,47.40
2019-01-20T19:47:34.989Z,52.63
2019-01-20T19:52:39.503Z,41.37
2019-01-20T19:57:44.173Z,51.47
2019-01-20T20:02:48.850Z,42.73
2019-01-20T20:07:54.110Z,44.83
2019-01-20T20:12:59.201Z,52.00
2019-01-20T20:18:03.931Z,43.10
2019-01-20T20:23:08.566Z,40.80
2019-01-20T20:28:13.119Z,42.10
2019-01-20T20:33:17.702Z,43.33
2019-01-20T20:38:22.321Z,45.00
2019-01-20T20:43:26.922Z,51.63
2019-01-20T20:48:31.545Z,50.93
2019-01-20T20:53:36.118Z,51.43
2019-01-20T20:58:40.762Z,52.70
2019-01-20T21:03:46.234Z,51.17
2019-01-20T21:08:50.841Z,47.43
2019-01-20T21:13:55.464Z,56.23
2019-01-20T21:19:00.082Z,52.30
2019-01-20T21:24:04.667Z,50.97
2019-01-20T21:29:09.367Z,60.10
2019-01-20T21:34:14.006Z,46.60
2019-01-20T21:39:18.693Z,47.67
2019-01-20T21:44:23.285Z,59.83
2019-01-20T21:49:27.820Z,62.53
2019-01-20T21:54:32.448Z,61.70
2019-01-20T21:59:37.073Z,68.77
2019-01-20T22:04:41.684Z,56.67
2019-01-20T22:09:46.285Z,56.13
2019-01-20T22:14:51.050Z,62.30
2019-01-20T22:19:55.630Z,66.83
2019-01-20T22:25:01.370Z,61.63
2019-01-20T22:30:08.483Z,65.07
2019-01-20T22:35:13.314Z,54.03
2019-01-20T22:40:18.303Z,54.00
2019-01-20T22:45:25.031Z,66.87
2019-01-20T22:50:29.690Z,93.05
2019-01-20T22:55:34.622Z,72.93
2019-01-20T23:01:15.678Z,76.03
2019-01-20T23:06:20.295Z,63.77
2019-01-20T23:11:25.241Z,65.80
2019-01-20T23:16:30.030Z,67.17
2019-01-20T23:21:34.614Z,73.03
2019-01-20T23:26:47.277Z,74.90
2019-01-20T23:31:52.813Z,65.77
2019-01-20T23:36:57.399Z,72.07
2019-01-20T23:42:01.997Z,61.80
2019-01-20T23:47:06.598Z,61.83
2019-01-20T23:52:11.190Z,60.57
2019-01-20T23:57:15.698Z,76.73
